createdAt,value
2023-04-17T00:00:04.887Z,11.31
2023-04-17T00:02:39.823Z,11.28
2023-04-17T00:05:10.364Z,11.23
2023-04-17T00:07:39.952Z,11.24
2023-04-17T00:10:10.704Z,11.15
2023-04-17T00:12:39.632Z,11.11
2023-04-17T00:15:09.525Z,11.11
2023-04-17T00:17:39.842Z,11.08
2023-04-17T00:20:10.881Z,11.15
2023-04-17T00:22:40.456Z,11.18
2023-04-17T00:25:13.043Z,11.21
2023-04-17T00:27:42.735Z,11.17
2023-04-17T00:30:12.470Z,11.15
2023-04-17T00:32:42.769Z,11.29
2023-04-17T00:35:12.079Z,11.30
2023-04-17T00:37:41.580Z,11.36
2023-04-17T00:40:11.985Z,11.34
2023-04-17T00:42:41.522Z,11.40
2023-04-17T00:45:11.527Z,11.35
2023-04-17T00:47:41.056Z,11.31
2023-04-17T00:50:12.174Z,11.12
2023-04-17T00:52:41.220Z,11.09
2023-04-17T00:55:11.192Z,11.01
2023-04-17T00:57:40.204Z,10.96
2023-04-17T01:00:10.521Z,10.88
2023-04-17T01:02:39.707Z,10.85
2023-04-17T01:05:09.518Z,10.81
2023-04-17T01:07:41.360Z,10.75
2023-04-17T01:10:10.881Z,10.74
2023-04-17T01:12:40.596Z,10.76
2023-04-17T01:15:10.136Z,10.76
2023-04-17T01:17:38.998Z,10.74
2023-04-17T01:20:11.108Z,10.76
2023-04-17T01:22:41.462Z,10.72
2023-04-17T01:25:12.798Z,10.68
2023-04-17T01:27:42.013Z,10.59
2023-04-17T01:30:12.629Z,10.64
2023-04-17T01:32:50.605Z,10.64
2023-04-17T01:35:19.504Z,10.64
2023-04-17T01:37:48.391Z,10.67
2023-04-17T01:40:18.754Z,10.65
2023-04-17T01:42:47.562Z,10.63
2023-04-17T01:45:16.674Z,10.62
2023-04-17T01:47:45.634Z,10.60
2023-04-17T01:50:15.368Z,10.57
2023-04-17T01:52:45.362Z,10.50
2023-04-17T01:55:14.233Z,10.53
2023-04-17T01:57:44.524Z,10.44
2023-04-17T02:00:14.790Z,10.45
2023-04-17T02:02:45.187Z,10.45
2023-04-17T02:05:14.232Z,10.52
2023-04-17T02:07:43.054Z,10.49
2023-04-17T02:10:12.039Z,10.32
2023-04-17T02:12:40.895Z,10.31
2023-04-17T02:15:12.202Z,10.34
2023-04-17T02:17:41.183Z,10.35
2023-04-17T02:20:14.192Z,10.32
2023-04-17T02:22:43.100Z,10.25
2023-04-17T02:25:12.088Z,10.26
2023-04-17T02:27:40.992Z,10.34
2023-04-17T02:30:16.494Z,10.27
2023-04-17T02:32:45.993Z,10.33
2023-04-17T02:35:14.916Z,10.29
2023-04-17T02:37:43.896Z,10.27
2023-04-17T02:40:13.261Z,10.31
2023-04-17T02:42:42.161Z,10.25
2023-04-17T02:45:12.926Z,10.22
2023-04-17T02:47:41.965Z,10.28
2023-04-17T02:50:12.886Z,10.19
2023-04-17T02:52:53.637Z,10.19
2023-04-17T02:55:22.997Z,10.21
2023-04-17T02:57:51.913Z,10.11
2023-04-17T03:00:23.061Z,10.11
2023-04-17T03:02:52.594Z,10.06
2023-04-17T03:05:23.399Z,10.10
2023-04-17T03:07:53.940Z,10.15
2023-04-17T03:10:22.836Z,9.91
2023-04-17T03:12:52.139Z,9.76
2023-04-17T03:15:22.519Z,9.88
2023-04-17T03:17:51.448Z,9.76
2023-04-17T03:20:20.489Z,9.89
2023-04-17T03:22:49.391Z,9.89
2023-04-17T03:25:18.198Z,10.06
2023-04-17T03:27:53.954Z,10.19
2023-04-17T03:30:27.894Z,10.19
2023-04-17T03:32:59.222Z,10.18
2023-04-17T03:35:31.582Z,10.14
2023-04-17T03:38:00.930Z,10.05
2023-04-17T03:40:30.417Z,10.06
2023-04-17T03:43:02.138Z,10.02
2023-04-17T03:45:34.060Z,9.81
2023-04-17T03:48:03.486Z,9.51
2023-04-17T03:50:33.382Z,9.47
2023-04-17T03:53:04.151Z,9.60
2023-04-17T03:55:34.325Z,9.58
2023-04-17T03:58:03.804Z,9.66
2023-04-17T04:00:37.401Z,9.78
2023-04-17T04:03:10.246Z,9.78
2023-04-17T04:05:43.030Z,9.83
2023-04-17T04:08:13.222Z,9.78
2023-04-17T04:10:49.188Z,9.90
2023-04-17T04:13:23.811Z,9.86
2023-04-17T04:15:58.989Z,9.83
2023-04-17T04:18:30.837Z,9.88
2023-04-17T04:21:00.543Z,10.04
2023-04-17T04:23:34.710Z,10.05
2023-04-17T04:26:03.701Z,10.16
2023-04-17T04:28:39.240Z,10.18
2023-04-17T04:31:14.826Z,10.19
2023-04-17T04:33:45.528Z,10.19
2023-04-17T04:36:20.303Z,10.31
2023-04-17T04:38:53.672Z,10.33
2023-04-17T04:41:34.063Z,10.35
2023-04-17T04:44:05.260Z,10.51
2023-04-17T04:46:37.881Z,10.60
2023-04-17T04:49:06.890Z,10.89
2023-04-17T04:51:37.570Z,11.13
2023-04-17T04:54:08.573Z,11.31
2023-04-17T04:56:45.933Z,11.54
2023-04-17T04:59:16.937Z,11.64
2023-04-17T05:01:53.853Z,11.67
2023-04-17T05:04:25.593Z,11.51
2023-04-17T05:06:58.667Z,11.33
2023-04-17T05:09:27.915Z,11.24
2023-04-17T05:12:00.215Z,11.24
2023-04-17T05:14:29.892Z,11.10
2023-04-17T05:17:02.080Z,11.59
2023-04-17T05:19:31.808Z,11.79
2023-04-17T05:22:04.971Z,11.97
2023-04-17T05:24:37.651Z,11.71
2023-04-17T05:27:06.504Z,11.48
2023-04-17T05:29:37.423Z,11.39
2023-04-17T05:32:07.860Z,11.44
2023-04-17T05:34:53.390Z,11.27
2023-04-17T05:37:26.446Z,11.37
2023-04-17T05:39:57.217Z,11.54
2023-04-17T05:42:26.224Z,11.55
2023-04-17T05:44:55.375Z,11.76
2023-04-17T05:47:26.016Z,11.89
2023-04-17T05:49:58.173Z,11.95
2023-04-17T05:52:29.969Z,11.91
2023-04-17T05:54:59.133Z,11.99
2023-04-17T05:57:28.120Z,12.25
2023-04-17T05:59:57.174Z,12.05
2023-04-17T06:02:28.005Z,12.17
2023-04-17T06:04:58.521Z,12.27
2023-04-17T06:07:28.206Z,12.30
2023-04-17T06:09:58.098Z,12.51
2023-04-17T06:12:27.080Z,12.49
2023-04-17T06:14:57.475Z,12.70
2023-04-17T06:17:27.847Z,12.99
2023-04-17T06:19:56.698Z,13.04
2023-04-17T06:22:25.736Z,13.19
2023-04-17T06:24:57.090Z,13.39
2023-04-17T06:27:25.894Z,13.55
2023-04-17T06:29:56.060Z,13.66
2023-04-17T06:32:25.105Z,13.29
2023-04-17T06:34:59.375Z,13.41
2023-04-17T06:37:46.677Z,13.40
2023-04-17T06:40:15.554Z,13.62
2023-04-17T06:42:44.550Z,13.79
2023-04-17T06:45:19.638Z,13.59
2023-04-17T06:47:48.626Z,13.47
2023-04-17T06:50:22.050Z,13.88
2023-04-17T06:52:50.938Z,14.16
2023-04-17T06:55:20.074Z,13.94
2023-04-17T06:57:48.918Z,13.87
2023-04-17T07:00:18.516Z,13.72
2023-04-17T07:02:47.604Z,13.71
2023-04-17T07:05:16.749Z,13.75
2023-04-17T07:07:48.134Z,13.98
2023-04-17T07:10:19.467Z,13.99
2023-04-17T07:12:48.390Z,13.99
2023-04-17T07:15:17.472Z,14.14
2023-04-17T07:17:46.442Z,13.98
2023-04-17T07:20:15.342Z,14.06
2023-04-17T07:22:44.343Z,13.99
2023-04-17T07:25:14.600Z,13.97
2023-04-17T07:27:43.397Z,14.02
2023-04-17T07:30:12.687Z,13.91
2023-04-17T07:32:41.687Z,14.34
2023-04-17T07:35:10.838Z,14.25
2023-04-17T07:37:39.617Z,14.36
2023-04-17T07:40:10.524Z,14.35
2023-04-17T07:42:40.759Z,14.22
2023-04-17T07:45:10.758Z,14.08
2023-04-17T07:47:39.642Z,13.99
2023-04-17T07:50:09.544Z,13.86
2023-04-17T07:52:38.375Z,13.66
2023-04-17T07:55:08.102Z,13.59
2023-04-17T07:57:36.896Z,13.83
2023-04-17T08:00:10.573Z,13.93
2023-04-17T08:02:42.787Z,13.59
2023-04-17T08:05:12.318Z,13.63
2023-04-17T08:07:42.603Z,13.71
2023-04-17T08:10:11.859Z,13.61
2023-04-17T08:12:41.527Z,13.34
2023-04-17T08:15:12.821Z,13.32
2023-04-17T08:17:41.732Z,13.24
2023-04-17T08:20:11.363Z,13.27
2023-04-17T08:22:41.601Z,13.22
2023-04-17T08:25:11.925Z,13.22
2023-04-17T08:27:42.852Z,13.21
2023-04-17T08:30:18.519Z,13.20
2023-04-17T08:32:50.128Z,13.21
2023-04-17T08:35:19.304Z,13.01
2023-04-17T08:37:48.554Z,13.10
2023-04-17T08:40:18.825Z,13.24
2023-04-17T08:42:48.352Z,13.13
2023-04-17T08:45:20.021Z,13.05
2023-04-17T08:47:49.027Z,12.81
2023-04-17T08:50:20.126Z,12.79
2023-04-17T08:52:50.248Z,12.80
2023-04-17T08:55:23.763Z,12.62
2023-04-17T08:57:57.129Z,12.73
2023-04-17T09:00:28.688Z,12.42
2023-04-17T09:02:59.296Z,12.34
2023-04-17T09:05:33.388Z,12.29
2023-04-17T09:08:11.391Z,12.07
2023-04-17T09:10:42.125Z,11.94
2023-04-17T09:13:14.523Z,11.89
2023-04-17T09:15:46.465Z,12.00
2023-04-17T09:18:26.608Z,12.14
2023-04-17T09:20:57.683Z,12.33
2023-04-17T09:23:27.329Z,12.49
2023-04-17T09:26:18.466Z,12.54
2023-04-17T09:29:08.656Z,12.60
2023-04-17T09:31:40.347Z,12.60
2023-04-17T09:34:11.984Z,12.67
2023-04-17T09:36:42.799Z,12.68
2023-04-17T09:39:20.379Z,12.45
2023-04-17T09:41:49.276Z,12.67
2023-04-17T09:44:26.981Z,12.56
2023-04-17T09:46:57.939Z,12.84
2023-04-17T09:49:33.973Z,13.17
2023-04-17T09:52:04.276Z,13.37
2023-04-17T09:54:38.183Z,13.57
2023-04-17T09:57:08.904Z,14.00
2023-04-17T09:59:40.113Z,14.40
2023-04-17T10:02:11.692Z,14.34
2023-04-17T10:04:41.218Z,14.36
2023-04-17T10:07:10.300Z,14.42
2023-04-17T10:09:41.562Z,14.46
2023-04-17T10:12:14.679Z,14.45
2023-04-17T10:14:46.816Z,14.44
2023-04-17T10:17:28.601Z,14.43
2023-04-17T10:19:57.778Z,14.37
2023-04-17T10:22:30.317Z,14.11
2023-04-17T10:25:22.186Z,14.19
2023-04-17T10:27:56.021Z,14.31
2023-04-17T10:30:26.717Z,14.24
2023-04-17T10:33:26.098Z,14.27
2023-04-17T10:35:55.677Z,14.38
2023-04-17T10:38:35.434Z,14.01
2023-04-17T10:41:09.405Z,14.35
2023-04-17T10:43:42.576Z,14.40
2023-04-17T10:46:12.805Z,14.27
2023-04-17T10:48:50.648Z,14.35
2023-04-17T10:51:41.734Z,14.35
2023-04-17T10:54:15.753Z,14.13
2023-04-17T10:56:48.491Z,14.30
2023-04-17T10:59:18.951Z,14.60
2023-04-17T11:02:00.966Z,14.57
2023-04-17T11:04:33.843Z,14.19
2023-04-17T11:07:03.796Z,14.29
2023-04-17T11:09:32.603Z,13.67
2023-04-17T11:12:03.564Z,13.58
2023-04-17T11:14:32.601Z,13.57
2023-04-17T11:17:02.386Z,13.34
2023-04-17T11:19:33.758Z,13.35
2023-04-17T11:22:03.345Z,13.61
2023-04-17T11:24:33.119Z,13.65
2023-04-17T11:27:03.966Z,13.66
2023-04-17T11:29:32.997Z,13.46
2023-04-17T11:32:02.127Z,13.27
2023-04-17T11:34:31.590Z,13.38
2023-04-17T11:37:03.260Z,13.41
2023-04-17T11:39:33.966Z,13.32
2023-04-17T11:42:03.885Z,13.35
2023-04-17T11:44:32.808Z,13.32
2023-04-17T11:47:04.046Z,13.34
2023-04-17T11:49:38.524Z,13.46
2023-04-17T11:52:08.739Z,13.37
2023-04-17T11:54:38.737Z,13.53
2023-04-17T11:57:12.565Z,13.81
2023-04-17T11:59:44.728Z,13.82
2023-04-17T12:02:15.266Z,14.00
2023-04-17T12:04:44.452Z,13.75
2023-04-17T12:07:25.669Z,13.57
2023-04-17T12:09:58.681Z,13.40
2023-04-17T12:12:27.566Z,13.39
2023-04-17T12:14:56.464Z,13.24
2023-04-17T12:17:25.468Z,13.37
2023-04-17T12:19:54.461Z,13.40
2023-04-17T12:22:24.677Z,13.38
2023-04-17T12:24:53.535Z,13.41
2023-04-17T12:27:22.355Z,13.42
2023-04-17T12:29:51.181Z,13.57
2023-04-17T12:32:20.086Z,13.92
2023-04-17T12:34:48.942Z,14.17
2023-04-17T12:37:17.794Z,14.16
2023-04-17T12:39:48.207Z,14.11
2023-04-17T12:42:17.195Z,14.25
2023-04-17T12:44:46.150Z,14.18
2023-04-17T12:47:15.525Z,14.19
2023-04-17T12:49:44.437Z,14.37
2023-04-17T12:52:13.263Z,14.59
2023-04-17T12:54:42.089Z,14.42
2023-04-17T12:57:12.356Z,14.28
2023-04-17T12:59:41.212Z,13.74
2023-04-17T13:02:10.154Z,13.69
2023-04-17T13:04:39.050Z,13.32
2023-04-17T13:07:08.148Z,13.29
2023-04-17T13:09:37.426Z,13.18
2023-04-17T13:12:06.860Z,13.01
2023-04-17T13:14:38.193Z,12.94
2023-04-17T13:17:07.529Z,12.87
2023-04-17T13:19:38.166Z,12.76
2023-04-17T13:22:07.522Z,12.72
2023-04-17T13:24:37.094Z,12.64
2023-04-17T13:27:06.178Z,12.72
2023-04-17T13:29:36.605Z,12.65
2023-04-17T13:32:05.834Z,12.50
2023-04-17T13:34:34.754Z,12.62
2023-04-17T13:37:03.768Z,12.48
2023-04-17T13:39:32.630Z,12.63
2023-04-17T13:42:02.087Z,12.69
2023-04-17T13:44:32.104Z,12.65
2023-04-17T13:47:03.722Z,12.69
2023-04-17T13:49:32.567Z,12.72
2023-04-17T13:52:02.047Z,12.64
2023-04-17T13:54:31.137Z,12.70
2023-04-17T13:57:00.066Z,12.63
2023-04-17T13:59:29.835Z,12.76
2023-04-17T14:02:00.418Z,12.79
2023-04-17T14:04:31.674Z,12.87
2023-04-17T14:07:00.663Z,12.83
2023-04-17T14:09:29.670Z,12.78
2023-04-17T14:11:59.289Z,12.70
2023-04-17T14:14:30.746Z,12.42
2023-04-17T14:16:59.563Z,12.46
2023-04-17T14:19:28.451Z,12.32
2023-04-17T14:21:58.684Z,12.31
2023-04-17T14:24:27.544Z,12.36
2023-04-17T14:26:56.789Z,12.34
2023-04-17T14:29:25.702Z,12.08
2023-04-17T14:31:54.916Z,12.00
2023-04-17T14:34:23.806Z,12.15
2023-04-17T14:36:52.679Z,12.42
2023-04-17T14:39:22.901Z,12.34
2023-04-17T14:41:51.830Z,12.59
2023-04-17T14:44:21.626Z,12.78
2023-04-17T14:46:50.541Z,12.91
2023-04-17T14:49:20.550Z,12.87
2023-04-17T14:51:49.380Z,12.69
2023-04-17T14:54:18.272Z,12.91
2023-04-17T14:56:48.538Z,12.81
2023-04-17T14:59:17.383Z,13.06
2023-04-17T15:01:46.418Z,12.88
2023-04-17T15:04:15.726Z,12.72
2023-04-17T15:06:44.777Z,12.79
2023-04-17T15:09:14.061Z,12.93
2023-04-17T15:11:44.120Z,13.08
2023-04-17T15:14:14.382Z,13.06
2023-04-17T15:16:43.257Z,13.12
2023-04-17T15:19:12.276Z,13.35
2023-04-17T15:21:41.336Z,13.49
2023-04-17T15:24:10.217Z,13.61
2023-04-17T15:26:39.053Z,13.51
2023-04-17T15:29:07.853Z,13.71
2023-04-17T15:31:38.277Z,13.71
2023-04-17T15:34:07.430Z,13.59
2023-04-17T15:36:36.238Z,13.45
2023-04-17T15:39:05.200Z,13.21
2023-04-17T15:41:34.060Z,13.17
2023-04-17T15:44:02.905Z,13.29
2023-04-17T15:46:32.203Z,13.18
2023-04-17T15:49:08.743Z,13.11
2023-04-17T15:51:39.606Z,12.93
2023-04-17T15:54:11.944Z,12.76
2023-04-17T15:56:41.370Z,12.90
2023-04-17T15:59:10.143Z,12.82
2023-04-17T16:01:39.030Z,12.92
2023-04-17T16:04:09.611Z,12.79
2023-04-17T16:06:38.811Z,12.74
2023-04-17T16:09:07.725Z,12.61
2023-04-17T16:11:36.547Z,12.55
2023-04-17T16:14:06.512Z,12.53
2023-04-17T16:16:53.017Z,12.50
2023-04-17T16:19:37.999Z,12.49
2023-04-17T16:22:50.113Z,12.42
2023-04-17T16:25:35.245Z,12.31
2023-04-17T16:31:55.734Z,12.24
2023-04-17T16:34:51.837Z,12.23
2023-04-17T16:41:04.353Z,12.25
2023-04-17T16:43:33.445Z,12.25
2023-04-17T16:46:24.007Z,12.26
2023-04-17T16:49:36.317Z,12.16
2023-04-17T16:52:19.596Z,12.19
2023-04-17T16:54:48.420Z,12.20
2023-04-17T16:57:17.370Z,12.10
2023-04-17T16:59:46.172Z,12.06
2023-04-17T17:02:15.083Z,11.97
2023-04-17T17:04:45.171Z,12.09
2023-04-17T17:07:14.015Z,12.06
2023-04-17T17:09:44.190Z,11.99
2023-04-17T17:12:13.039Z,11.95
2023-04-17T17:14:41.923Z,11.88
2023-04-17T17:17:10.730Z,11.89
2023-04-17T17:19:39.657Z,11.86
2023-04-17T17:22:08.508Z,11.85
2023-04-17T17:24:37.372Z,11.81
2023-04-17T17:27:07.570Z,11.77
2023-04-17T17:29:36.432Z,11.77
2023-04-17T17:32:05.826Z,11.82
2023-04-17T17:34:35.734Z,11.97
2023-04-17T17:37:04.629Z,12.03
2023-04-17T17:39:33.417Z,11.89
2023-04-17T17:42:04.320Z,11.65
2023-04-17T17:44:34.807Z,11.76
2023-04-17T17:47:06.345Z,11.76
2023-04-17T17:49:36.431Z,11.57
2023-04-17T17:52:05.620Z,11.47
2023-04-17T17:54:36.960Z,11.43
2023-04-17T17:57:06.164Z,11.55
2023-04-17T17:59:36.426Z,11.44
2023-04-17T18:02:05.460Z,11.47
2023-04-17T18:04:34.553Z,11.57
2023-04-17T18:07:03.752Z,11.61
2023-04-17T18:09:32.591Z,11.56
2023-04-17T18:12:02.115Z,11.60
2023-04-17T18:14:31.560Z,11.72
2023-04-17T18:17:01.767Z,11.68
2023-04-17T18:19:30.641Z,11.64
2023-04-17T18:21:59.477Z,11.70
2023-04-17T18:24:28.814Z,11.67
2023-04-17T18:26:58.266Z,11.68
2023-04-17T18:29:27.141Z,11.63
2023-04-17T18:31:56.015Z,11.56
2023-04-17T18:34:26.275Z,11.61
2023-04-17T18:36:55.303Z,11.59
2023-04-17T18:39:24.136Z,11.48
2023-04-17T18:41:52.914Z,11.52
2023-04-17T18:44:22.432Z,11.48
2023-04-17T18:46:51.456Z,11.44
2023-04-17T18:49:20.638Z,11.76
2023-04-17T18:51:50.838Z,11.81
2023-04-17T18:54:19.713Z,11.81
2023-04-17T18:56:48.581Z,11.46
2023-04-17T18:59:19.838Z,11.20
2023-04-17T19:01:48.683Z,11.31
2023-04-17T19:04:17.519Z,11.33
2023-04-17T19:06:46.419Z,11.30
2023-04-17T19:09:16.616Z,11.38
2023-04-17T19:11:45.913Z,11.53
2023-04-17T19:14:14.868Z,11.24
2023-04-17T19:16:45.824Z,11.41
2023-04-17T19:19:16.214Z,11.41
2023-04-17T19:21:45.069Z,11.38
2023-04-17T19:24:13.866Z,11.22
2023-04-17T19:26:44.166Z,10.97
2023-04-17T19:29:13.556Z,11.43
2023-04-17T19:31:42.814Z,11.56
2023-04-17T19:34:11.640Z,11.48
2023-04-17T19:36:40.592Z,11.24
2023-04-17T19:39:09.394Z,11.20
2023-04-17T19:41:38.319Z,10.78
2023-04-17T19:44:09.660Z,10.75
2023-04-17T19:46:38.593Z,10.71
2023-04-17T19:49:07.510Z,10.65
2023-04-17T19:51:36.334Z,10.56
2023-04-17T19:54:05.588Z,10.81
2023-04-17T19:56:34.411Z,10.84
2023-04-17T19:59:04.566Z,10.82
2023-04-17T20:01:36.105Z,10.82
2023-04-17T20:04:05.172Z,10.72
2023-04-17T20:06:34.059Z,10.77
2023-04-17T20:09:04.788Z,10.74
2023-04-17T20:11:33.653Z,10.77
2023-04-17T20:14:03.338Z,10.68
2023-04-17T20:16:32.149Z,10.72
2023-04-17T20:19:02.548Z,10.78
2023-04-17T20:21:31.446Z,10.74
2023-04-17T20:24:00.588Z,11.22
2023-04-17T20:26:29.691Z,11.52
2023-04-17T20:28:58.612Z,11.14
2023-04-17T20:31:27.740Z,11.04
2023-04-17T20:33:56.800Z,11.02
2023-04-17T20:36:27.592Z,10.95
2023-04-17T20:38:56.428Z,10.68
2023-04-17T20:41:25.315Z,10.06
2023-04-17T20:44:01.089Z,10.28
2023-04-17T20:46:30.708Z,10.38
2023-04-17T20:48:59.727Z,10.07
2023-04-17T20:51:30.453Z,9.68
2023-04-17T20:53:59.287Z,9.58
2023-04-17T20:56:28.126Z,9.83
2023-04-17T20:58:56.908Z,9.88
2023-04-17T21:01:25.850Z,10.20
2023-04-17T21:03:54.732Z,10.43
2023-04-17T21:06:24.388Z,10.46
2023-04-17T21:08:54.748Z,10.48
2023-04-17T21:11:23.637Z,10.39
2023-04-17T21:13:52.466Z,10.44
2023-04-17T21:16:21.373Z,10.43
2023-04-17T21:18:50.232Z,10.40
2023-04-17T21:21:19.080Z,10.52
2023-04-17T21:23:47.886Z,10.55
2023-04-17T21:26:18.989Z,10.67
2023-04-17T21:28:47.807Z,10.67
2023-04-17T21:31:16.670Z,10.79
2023-04-17T21:33:45.699Z,10.85
2023-04-17T21:36:15.851Z,10.88
2023-04-17T21:38:44.913Z,10.73
2023-04-17T21:41:13.753Z,10.80
2023-04-17T21:43:43.977Z,10.55
2023-04-17T21:46:12.949Z,10.69
2023-04-17T21:48:41.802Z,10.79
2023-04-17T21:51:10.618Z,10.71
2023-04-17T21:53:39.462Z,10.72
2023-04-17T21:56:09.722Z,10.75
2023-04-17T21:58:38.605Z,10.68
2023-04-17T22:01:08.937Z,10.71
2023-04-17T22:03:37.827Z,10.64
2023-04-17T22:06:06.936Z,10.65
2023-04-17T22:08:35.721Z,10.73
2023-04-17T22:11:05.440Z,10.51
2023-04-17T22:13:34.358Z,10.67
2023-04-17T22:16:04.159Z,10.60
2023-04-17T22:18:34.395Z,10.52
2023-04-17T22:21:03.713Z,10.65
2023-04-17T22:23:32.547Z,10.64
2023-04-17T22:26:02.056Z,10.72
2023-04-17T22:28:31.995Z,10.62
2023-04-17T22:31:00.816Z,10.59
2023-04-17T22:33:29.674Z,10.56
2023-04-17T22:35:59.919Z,10.35
2023-04-17T22:38:28.768Z,10.15
2023-04-17T22:40:57.612Z,9.89
2023-04-17T22:43:26.628Z,10.18
2023-04-17T22:45:56.393Z,10.23
2023-04-17T22:48:25.728Z,10.25
2023-04-17T22:50:55.865Z,10.25
2023-04-17T22:53:26.374Z,10.27
2023-04-17T22:56:02.275Z,10.33
2023-04-17T22:58:32.808Z,10.43
2023-04-17T23:01:02.154Z,10.29
2023-04-17T23:03:31.136Z,10.28
2023-04-17T23:05:59.996Z,10.27
2023-04-17T23:08:31.201Z,10.13
2023-04-17T23:11:00.961Z,9.92
2023-04-17T23:13:30.701Z,10.05
2023-04-17T23:15:59.613Z,10.13
2023-04-17T23:18:28.418Z,10.06
2023-04-17T23:20:57.275Z,10.04
2023-04-17T23:23:26.183Z,10.13
2023-04-17T23:25:56.470Z,10.30
2023-04-17T23:28:30.426Z,10.31
2023-04-17T23:30:59.273Z,10.47
2023-04-17T23:33:28.084Z,10.45
2023-04-17T23:35:56.870Z,10.77
2023-04-17T23:38:25.946Z,10.84
2023-04-17T23:40:56.125Z,10.70
2023-04-17T23:43:24.972Z,10.62
2023-04-17T23:45:53.794Z,10.50
2023-04-17T23:48:23.184Z,10.36
2023-04-17T23:50:52.037Z,10.27
2023-04-17T23:53:20.953Z,10.28
2023-04-17T23:55:49.879Z,10.30
2023-04-17T23:58:20.100Z,10.24
